createdAt,value
2018-02-20T00:00:45.586Z,0
2018-02-20T00:01:55.578Z,0
2018-02-20T00:03:05.298Z,0
2018-02-20T00:04:15.295Z,0
2018-02-20T00:05:25.026Z,0
2018-02-20T00:06:35.025Z,0
2018-02-20T00:07:45.015Z,0
2018-02-20T00:08:55.007Z,0
2018-02-20T00:10:04.732Z,0
2018-02-20T00:11:14.723Z,0
2018-02-20T00:12:24.446Z,0
2018-02-20T00:13:34.170Z,0
2018-02-20T00:14:44.209Z,0
2018-02-20T00:15:54.199Z,0
2018-02-20T00:17:03.926Z,0
2018-02-20T00:18:13.646Z,0
2018-02-20T00:19:23.649Z,0
2018-02-20T00:20:33.375Z,0
2018-02-20T00:21:43.099Z,0
2018-02-20T00:22:53.092Z,0
2018-02-20T00:24:02.547Z,0
2018-02-20T00:25:12.540Z,0
2018-02-20T00:26:22.528Z,0
2018-02-20T00:27:32.521Z,0
2018-02-20T00:28:42.246Z,0
2018-02-20T00:29:51.974Z,0
2018-02-20T00:31:01.961Z,0
2018-02-20T00:32:11.951Z,0
2018-02-20T00:33:21.416Z,0
2018-02-20T00:34:31.144Z,0
2018-02-20T00:35:41.143Z,0
2018-02-20T00:36:51.138Z,0
2018-02-20T00:38:01.135Z,0
2018-02-20T00:39:11.123Z,0
2018-02-20T00:40:21.118Z,0
2018-02-20T00:41:30.841Z,0
2018-02-20T00:42:40.830Z,0
2018-02-20T00:43:50.287Z,0
2018-02-20T00:44:59.748Z,0
2018-02-20T00:46:09.470Z,0
2018-02-20T00:47:19.199Z,0
2018-02-20T00:48:28.923Z,0
2018-02-20T00:49:38.654Z,0
2018-02-20T00:50:48.648Z,0
2018-02-20T00:51:58.371Z,0
2018-02-20T00:53:07.300Z,0
2018-02-20T00:54:17.301Z,0
2018-02-20T00:55:27.303Z,0
2018-02-20T00:56:37.300Z,0
2018-02-20T00:57:47.295Z,0
2018-02-20T00:58:57.285Z,0
2018-02-20T01:00:06.741Z,0
2018-02-20T01:01:16.734Z,0
2018-02-20T01:02:26.458Z,0
2018-02-20T01:03:36.451Z,0
2018-02-20T01:04:46.448Z,0
2018-02-20T01:05:56.439Z,0
2018-02-20T01:07:06.495Z,0
2018-02-20T01:08:15.691Z,0
2018-02-20T01:09:25.420Z,0
2018-02-20T01:10:35.414Z,0
2018-02-20T01:11:45.415Z,0
2018-02-20T01:12:55.138Z,0
2018-02-20T01:14:04.863Z,0
2018-02-20T01:15:14.867Z,0
2018-02-20T01:16:24.872Z,0
2018-02-20T01:17:34.863Z,0
2018-02-20T01:18:44.861Z,0
2018-02-20T01:19:54.599Z,0
2018-02-20T01:21:04.058Z,0
2018-02-20T01:22:14.062Z,0
2018-02-20T01:23:24.053Z,0
2018-02-20T01:24:33.775Z,0
2018-02-20T01:25:43.766Z,0
2018-02-20T01:26:53.756Z,0
2018-02-20T01:28:03.748Z,0
2018-02-20T01:29:13.738Z,0
2018-02-20T01:30:23.467Z,0
2018-02-20T01:31:33.466Z,0
2018-02-20T01:32:43.454Z,0
2018-02-20T01:33:53.175Z,0
2018-02-20T01:35:03.173Z,0
2018-02-20T01:36:12.899Z,0
2018-02-20T01:37:22.626Z,0
2018-02-20T01:38:32.619Z,0
2018-02-20T01:39:42.618Z,0
2018-02-20T01:40:52.606Z,0
2018-02-20T01:42:02.325Z,0
2018-02-20T01:43:12.045Z,0
2018-02-20T01:44:22.060Z,0
2018-02-20T01:45:31.518Z,0
2018-02-20T01:46:41.238Z,0
2018-02-20T01:47:51.327Z,0
2018-02-20T01:49:01.323Z,0
2018-02-20T01:50:11.053Z,0
2018-02-20T01:51:21.051Z,0
2018-02-20T01:52:31.049Z,0
2018-02-20T01:53:41.090Z,0
2018-02-20T01:54:50.822Z,0
2018-02-20T01:56:00.546Z,0
2018-02-20T01:57:10.002Z,0
2018-02-20T01:58:19.995Z,0
2018-02-20T01:59:29.723Z,0
2018-02-20T02:00:39.447Z,0
2018-02-20T02:01:49.169Z,0
2018-02-20T02:02:58.895Z,0
2018-02-20T02:04:08.887Z,0
2018-02-20T02:05:18.613Z,0
2018-02-20T02:06:28.617Z,0
2018-02-20T02:07:38.618Z,0
2018-02-20T02:08:48.073Z,0
2018-02-20T02:09:58.063Z,0
2018-02-20T02:11:07.792Z,0
2018-02-20T02:12:17.781Z,0
2018-02-20T02:13:27.506Z,0
2018-02-20T02:14:37.232Z,0
2018-02-20T02:15:47.227Z,0
2018-02-20T02:16:57.219Z,0
2018-02-20T02:18:06.952Z,0
2018-02-20T02:19:16.411Z,0
2018-02-20T02:20:26.405Z,0
2018-02-20T02:21:35.864Z,0
2018-02-20T02:22:45.848Z,0
2018-02-20T02:23:55.837Z,0
2018-02-20T02:25:05.830Z,0
2018-02-20T02:26:15.557Z,0
2018-02-20T02:27:25.553Z,0
2018-02-20T02:28:35.283Z,0
2018-02-20T02:29:45.275Z,0
2018-02-20T02:30:55.269Z,0
2018-02-20T02:32:05.026Z,0
2018-02-20T02:33:15.033Z,0
2018-02-20T02:34:25.073Z,0
2018-02-20T02:35:35.136Z,0
2018-02-20T02:36:45.141Z,0
2018-02-20T02:37:55.139Z,0
2018-02-20T02:39:05.147Z,0
2018-02-20T02:40:15.147Z,0
2018-02-20T02:41:25.159Z,0
2018-02-20T02:42:34.629Z,0
2018-02-20T02:43:44.631Z,0
2018-02-20T02:44:54.366Z,0
2018-02-20T02:46:04.359Z,0
2018-02-20T02:47:14.357Z,0
2018-02-20T02:48:24.360Z,0
2018-02-20T02:49:34.103Z,0
2018-02-20T02:50:43.842Z,0
2018-02-20T02:51:53.845Z,0
2018-02-20T02:53:03.857Z,0
2018-02-20T02:54:13.593Z,0
2018-02-20T02:55:23.606Z,0
2018-02-20T02:56:33.329Z,0
2018-02-20T02:57:43.055Z,0
2018-02-20T02:58:52.785Z,0
2018-02-20T03:00:02.788Z,0
2018-02-20T03:01:12.559Z,0
2018-02-20T03:02:22.560Z,0
2018-02-20T03:03:32.290Z,0
2018-02-20T03:04:42.299Z,0
2018-02-20T03:05:52.297Z,0
2018-02-20T03:07:02.300Z,0
2018-02-20T03:08:12.289Z,0
2018-02-20T03:09:21.796Z,0
2018-02-20T03:10:31.523Z,0
2018-02-20T03:11:41.505Z,0
2018-02-20T03:12:51.226Z,0
2018-02-20T03:14:01.216Z,0
2018-02-20T03:15:11.311Z,0
2018-02-20T03:16:21.304Z,0
2018-02-20T03:17:31.297Z,0
2018-02-20T03:18:41.018Z,0
2018-02-20T03:19:51.073Z,0
2018-02-20T03:21:01.060Z,0
2018-02-20T03:22:11.052Z,0
2018-02-20T03:23:21.047Z,0
2018-02-20T03:24:31.042Z,0
2018-02-20T03:25:41.031Z,0
2018-02-20T03:26:51.025Z,0
2018-02-20T03:28:01.018Z,0
2018-02-20T03:29:10.784Z,0
2018-02-20T03:30:20.520Z,0
2018-02-20T03:31:30.524Z,0
2018-02-20T03:32:40.516Z,0
2018-02-20T03:33:50.566Z,0
2018-02-20T03:35:00.559Z,0
2018-02-20T03:36:10.014Z,0
2018-02-20T03:37:20.004Z,0
2018-02-20T03:38:30.001Z,0
2018-02-20T03:39:39.724Z,0
2018-02-20T03:40:49.447Z,0
2018-02-20T03:41:59.443Z,0
2018-02-20T03:43:09.437Z,0
2018-02-20T03:44:19.421Z,0
2018-02-20T03:45:29.147Z,0
2018-02-20T03:46:38.870Z,0
2018-02-20T03:47:48.598Z,0
2018-02-20T03:48:58.598Z,0
2018-02-20T03:50:08.056Z,0
2018-02-20T03:51:17.789Z,0
2018-02-20T03:52:27.789Z,0
2018-02-20T03:53:37.778Z,0
2018-02-20T03:54:47.499Z,0
2018-02-20T03:55:57.222Z,0
2018-02-20T03:57:07.222Z,0
2018-02-20T03:58:17.217Z,0
2018-02-20T03:59:26.947Z,0
2018-02-20T04:00:36.982Z,0
2018-02-20T04:04:19.281Z,0
2018-02-20T04:05:29.276Z,0
2018-02-20T04:06:39.261Z,0
2018-02-20T04:07:48.990Z,0
2018-02-20T04:08:58.983Z,0
2018-02-20T04:10:08.975Z,0
2018-02-20T04:11:18.986Z,0
2018-02-20T04:12:28.976Z,0
2018-02-20T04:13:38.699Z,0
2018-02-20T04:14:48.689Z,0
2018-02-20T04:15:58.681Z,0
2018-02-20T04:17:08.671Z,0
2018-02-20T04:18:18.664Z,0
2018-02-20T04:19:28.649Z,0
2018-02-20T04:20:38.636Z,0
2018-02-20T04:21:48.362Z,0
2018-02-20T04:22:58.084Z,0
2018-02-20T04:24:08.078Z,0
2018-02-20T04:25:18.077Z,0
2018-02-20T04:26:28.060Z,0
2018-02-20T04:27:37.781Z,0
2018-02-20T04:28:47.762Z,0
2018-02-20T04:29:57.752Z,0
2018-02-20T04:31:07.746Z,0
2018-02-20T04:32:17.741Z,0
2018-02-20T04:33:27.462Z,0
2018-02-20T04:34:37.205Z,0
2018-02-20T04:35:47.206Z,0
2018-02-20T04:36:57.198Z,0
2018-02-20T04:38:07.189Z,0
2018-02-20T04:39:17.184Z,0
2018-02-20T04:40:26.910Z,0
2018-02-20T04:41:36.897Z,0
2018-02-20T04:42:46.892Z,0
2018-02-20T04:43:56.885Z,0
2018-02-20T04:45:06.612Z,0
2018-02-20T04:46:16.603Z,0
2018-02-20T04:47:26.595Z,0
2018-02-20T04:48:36.585Z,0
2018-02-20T04:49:46.577Z,0
2018-02-20T04:50:56.566Z,0
2018-02-20T04:52:06.556Z,0
2018-02-20T04:53:16.282Z,0
2018-02-20T04:54:26.340Z,0
2018-02-20T04:55:36.330Z,0
2018-02-20T04:56:46.373Z,0
2018-02-20T04:57:56.357Z,0
2018-02-20T04:59:06.082Z,0
2018-02-20T05:00:16.091Z,0
2018-02-20T05:01:26.083Z,0
2018-02-20T05:02:36.072Z,0
2018-02-20T05:03:46.070Z,0
2018-02-20T05:04:56.058Z,0
2018-02-20T05:06:06.047Z,0
2018-02-20T05:07:15.772Z,0
2018-02-20T05:08:25.501Z,0
2018-02-20T05:09:35.489Z,0
2018-02-20T05:10:45.476Z,0
2018-02-20T05:11:55.470Z,0
2018-02-20T05:13:05.473Z,0
2018-02-20T05:14:15.462Z,0
2018-02-20T05:15:25.463Z,0
2018-02-20T05:16:35.510Z,0
2018-02-20T05:17:45.507Z,0
2018-02-20T05:18:55.500Z,0
2018-02-20T05:20:05.275Z,0
2018-02-20T05:21:15.267Z,0
2018-02-20T05:22:24.988Z,0
2018-02-20T05:23:34.713Z,0
2018-02-20T05:24:44.703Z,0
2018-02-20T05:25:54.693Z,0
2018-02-20T05:27:04.684Z,0
2018-02-20T05:28:14.678Z,0
2018-02-20T05:29:24.664Z,0
2018-02-20T05:30:34.656Z,0
2018-02-20T05:31:44.660Z,0
2018-02-20T05:32:54.654Z,0
2018-02-20T05:34:04.374Z,0
2018-02-20T05:35:14.099Z,0
2018-02-20T05:36:23.819Z,0
2018-02-20T05:37:33.425Z,0
2018-02-20T05:38:42.884Z,0
2018-02-20T05:39:52.865Z,0
2018-02-20T05:41:02.849Z,0
2018-02-20T05:42:12.836Z,0
2018-02-20T05:43:22.830Z,0
2018-02-20T05:44:32.825Z,0
2018-02-20T05:45:42.818Z,0
2018-02-20T05:46:52.807Z,0
2018-02-20T05:48:02.535Z,0
2018-02-20T05:49:12.547Z,0
2018-02-20T05:50:22.267Z,0
2018-02-20T05:51:32.089Z,0
2018-02-20T05:52:42.143Z,0
2018-02-20T05:53:51.598Z,0
2018-02-20T05:55:01.594Z,0
2018-02-20T05:56:11.625Z,0
2018-02-20T05:57:21.360Z,0
2018-02-20T05:58:31.082Z,0
2018-02-20T05:59:40.814Z,0
2018-02-20T06:00:50.807Z,0
2018-02-20T06:02:00.801Z,4
2018-02-20T06:03:10.536Z,4
2018-02-20T06:04:20.525Z,0
2018-02-20T06:05:29.717Z,0
2018-02-20T06:06:39.712Z,4
2018-02-20T06:07:49.706Z,0
2018-02-20T06:08:59.694Z,4
2018-02-20T06:10:09.424Z,8
2018-02-20T06:11:19.145Z,4
2018-02-20T06:12:29.135Z,4
2018-02-20T06:13:39.127Z,4
2018-02-20T06:14:49.124Z,12
2018-02-20T06:15:58.853Z,12
2018-02-20T06:17:08.859Z,12
2018-02-20T06:18:18.844Z,12
2018-02-20T06:19:28.579Z,16
2018-02-20T06:20:38.571Z,16
2018-02-20T06:21:48.296Z,24
2018-02-20T06:22:57.749Z,24
2018-02-20T06:24:07.525Z,28
2018-02-20T06:25:17.250Z,32
2018-02-20T06:26:27.268Z,36
2018-02-20T06:27:36.753Z,40
2018-02-20T06:28:46.737Z,48
2018-02-20T06:29:56.462Z,52
2018-02-20T06:31:06.463Z,60
2018-02-20T06:32:15.933Z,68
2018-02-20T06:33:25.928Z,72
2018-02-20T06:34:35.928Z,84
2018-02-20T06:35:45.930Z,96
2018-02-20T06:36:55.920Z,104
2018-02-20T06:38:05.920Z,116
2018-02-20T06:39:15.910Z,128
2018-02-20T06:40:25.365Z,136
2018-02-20T06:41:35.094Z,152
2018-02-20T06:42:45.087Z,164
2018-02-20T06:43:55.097Z,176
2018-02-20T06:45:04.816Z,192
2018-02-20T06:46:14.006Z,212
2018-02-20T06:47:23.833Z,228
2018-02-20T06:48:33.557Z,248
2018-02-20T06:49:43.014Z,264
2018-02-20T06:50:53.028Z,288
2018-02-20T06:52:02.753Z,308
2018-02-20T06:53:12.745Z,328
2018-02-20T06:54:22.475Z,348
2018-02-20T06:55:32.474Z,368
2018-02-20T06:56:42.205Z,396
2018-02-20T06:57:52.207Z,416
2018-02-20T06:59:02.200Z,436
2018-02-20T07:00:11.662Z,460
2018-02-20T07:01:21.659Z,488
2018-02-20T07:02:31.391Z,512
2018-02-20T07:03:41.115Z,540
2018-02-20T07:04:51.108Z,568
2018-02-20T07:06:01.103Z,592
2018-02-20T07:07:10.829Z,624
2018-02-20T07:08:20.824Z,656
2018-02-20T07:09:30.814Z,684
2018-02-20T07:10:40.542Z,720
2018-02-20T07:11:50.274Z,752
2018-02-20T07:13:00.267Z,780
2018-02-20T07:14:10.000Z,808
2018-02-20T07:15:19.734Z,840
2018-02-20T07:16:29.743Z,880
2018-02-20T07:17:39.824Z,924
2018-02-20T07:18:49.816Z,956
2018-02-20T07:19:59.541Z,980
2018-02-20T07:21:09.534Z,1012
2018-02-20T07:22:19.521Z,1044
2018-02-20T07:23:29.555Z,1088
2018-02-20T07:24:39.559Z,1132
2018-02-20T07:25:49.304Z,1164
2018-02-20T07:26:59.032Z,1188
2018-02-20T07:28:09.038Z,1236
2018-02-20T07:29:19.026Z,1292
2018-02-20T07:30:29.039Z,1332
2018-02-20T07:31:39.165Z,1356
2018-02-20T07:32:49.154Z,1388
2018-02-20T07:33:59.176Z,1448
2018-02-20T07:35:09.173Z,1496
2018-02-20T07:36:19.174Z,1524
2018-02-20T07:37:28.894Z,1548
2018-02-20T07:38:38.618Z,1584
2018-02-20T07:39:48.341Z,1644
2018-02-20T07:40:58.343Z,1708
2018-02-20T07:42:08.331Z,1764
2018-02-20T07:43:17.791Z,1808
2018-02-20T07:44:27.789Z,1860
2018-02-20T07:45:37.907Z,1916
2018-02-20T07:46:47.633Z,1956
2018-02-20T07:47:57.127Z,1968
2018-02-20T07:49:07.121Z,1980
2018-02-20T07:50:17.002Z,2016
2018-02-20T07:51:26.992Z,2068
2018-02-20T07:52:36.984Z,2116
2018-02-20T07:53:46.711Z,2152
2018-02-20T07:54:56.710Z,2196
2018-02-20T07:56:06.166Z,2244
2018-02-20T07:57:15.674Z,2316
2018-02-20T07:58:25.454Z,2396
2018-02-20T07:59:35.197Z,2440
2018-02-20T08:00:45.199Z,2460
2018-02-20T08:01:55.190Z,2496
2018-02-20T08:03:04.700Z,2552
2018-02-20T08:04:14.708Z,2608
2018-02-20T08:05:24.696Z,2672
2018-02-20T08:06:34.476Z,2756
2018-02-20T08:07:44.195Z,2824
2018-02-20T08:08:54.193Z,2872
2018-02-20T08:10:04.184Z,2944
2018-02-20T08:11:14.179Z,3048
2018-02-20T08:12:24.177Z,3136
2018-02-20T08:13:34.174Z,3200
2018-02-20T08:14:44.004Z,3244
2018-02-20T08:15:53.460Z,3284
2018-02-20T08:17:03.187Z,3344
2018-02-20T08:18:12.915Z,3396
2018-02-20T08:19:22.907Z,3452
2018-02-20T08:20:32.640Z,3512
2018-02-20T08:21:42.372Z,3552
2018-02-20T08:22:52.100Z,3592
2018-02-20T08:24:02.100Z,3644
2018-02-20T08:25:12.152Z,3720
2018-02-20T08:26:21.886Z,3812
2018-02-20T08:27:31.877Z,3860
2018-02-20T08:28:41.607Z,3876
2018-02-20T08:29:51.621Z,3896
2018-02-20T08:31:01.616Z,3932
2018-02-20T08:32:11.341Z,3988
2018-02-20T08:33:21.075Z,4028
2018-02-20T08:34:31.069Z,4048
2018-02-20T08:35:41.060Z,4088
2018-02-20T08:36:51.053Z,4156
2018-02-20T08:38:00.778Z,4228
2018-02-20T08:39:10.775Z,4308
2018-02-20T08:40:20.504Z,4392
2018-02-20T08:41:30.238Z,4488
2018-02-20T08:42:39.970Z,4548
2018-02-20T08:43:50.065Z,4572
2018-02-20T08:45:00.058Z,4640
2018-02-20T08:46:10.102Z,4716
2018-02-20T08:47:19.831Z,4792
2018-02-20T08:48:29.819Z,4880
2018-02-20T08:49:39.542Z,4980
2018-02-20T08:50:49.545Z,5064
2018-02-20T08:51:59.535Z,5112
2018-02-20T08:53:09.261Z,5200
2018-02-20T08:54:19.251Z,5300
2018-02-20T08:55:28.985Z,5380
2018-02-20T08:56:39.269Z,5432
2018-02-20T08:57:49.272Z,5492
2018-02-20T08:58:59.263Z,5568
2018-02-20T09:00:09.028Z,5648
2018-02-20T09:01:19.039Z,5808
2018-02-20T09:02:28.769Z,5984
2018-02-20T09:03:38.758Z,6136
2018-02-20T09:04:48.268Z,6260
2018-02-20T09:05:58.264Z,6380
2018-02-20T09:07:08.018Z,6524
2018-02-20T09:08:17.516Z,6612
2018-02-20T09:09:27.513Z,6688
2018-02-20T09:10:37.236Z,6728
2018-02-20T09:11:46.960Z,6776
2018-02-20T09:12:57.145Z,6860
2018-02-20T09:14:07.147Z,6960
2018-02-20T09:15:16.875Z,7048
2018-02-20T09:16:26.865Z,7112
2018-02-20T09:17:36.854Z,7236
2018-02-20T09:18:46.717Z,7328
2018-02-20T09:19:56.448Z,7400
2018-02-20T09:21:06.439Z,7524
2018-02-20T09:22:16.428Z,7624
2018-02-20T09:23:26.153Z,7704
2018-02-20T09:24:35.667Z,7764
2018-02-20T09:25:45.668Z,7816
2018-02-20T09:26:55.395Z,7844
2018-02-20T09:28:05.439Z,7872
2018-02-20T09:29:15.446Z,7896
2018-02-20T09:30:25.434Z,7956
2018-02-20T09:31:35.438Z,8004
2018-02-20T09:32:45.172Z,8020
2018-02-20T09:33:55.165Z,8024
2018-02-20T09:35:05.164Z,8060
2018-02-20T09:36:14.893Z,8144
2018-02-20T09:37:24.622Z,8200
2018-02-20T09:38:34.341Z,8200
2018-02-20T09:39:43.805Z,8180
2018-02-20T09:40:53.543Z,8216
2018-02-20T09:42:03.277Z,8280
2018-02-20T09:43:13.001Z,8280
2018-02-20T09:44:22.995Z,8260
2018-02-20T09:45:32.461Z,8216
2018-02-20T09:46:42.188Z,8200
2018-02-20T09:47:51.955Z,8220
2018-02-20T09:49:01.946Z,8232
2018-02-20T09:50:11.437Z,8228
2018-02-20T09:51:21.300Z,8304
2018-02-20T09:52:30.759Z,8428
2018-02-20T09:53:41.485Z,8520
2018-02-20T09:54:51.484Z,8560
2018-02-20T09:56:01.210Z,8592
2018-02-20T09:57:10.934Z,8684
2018-02-20T09:58:20.656Z,8780
2018-02-20T09:59:30.657Z,8824
2018-02-20T10:00:40.656Z,8840
2018-02-20T10:01:50.115Z,8868
2018-02-20T10:02:59.839Z,8892
2018-02-20T10:04:09.830Z,8944
2018-02-20T10:05:19.559Z,9000
2018-02-20T10:06:29.286Z,9040
2018-02-20T10:07:39.298Z,9096
2018-02-20T10:08:49.290Z,9212
2018-02-20T10:09:59.280Z,9272
2018-02-20T10:11:09.065Z,9328
2018-02-20T10:12:19.062Z,9432
2018-02-20T10:13:29.056Z,9520
2018-02-20T10:14:39.048Z,9524
2018-02-20T10:15:49.046Z,9424
2018-02-20T10:16:58.772Z,9408
2018-02-20T10:18:08.772Z,9404
2018-02-20T10:19:18.234Z,9352
2018-02-20T10:20:28.230Z,9400
2018-02-20T10:21:37.975Z,9504
2018-02-20T10:22:48.023Z,9572
2018-02-20T10:23:58.016Z,9588
2018-02-20T10:25:07.211Z,9632
2018-02-20T10:26:17.213Z,9636
2018-02-20T10:27:27.208Z,9612
2018-02-20T10:28:37.210Z,9652
2018-02-20T10:29:46.938Z,9768
2018-02-20T10:30:56.668Z,9840
2018-02-20T10:32:06.778Z,9876
2018-02-20T10:33:16.246Z,9944
2018-02-20T10:34:26.073Z,10016
2018-02-20T10:35:35.802Z,10108
2018-02-20T10:36:45.800Z,10212
2018-02-20T10:37:55.795Z,10300
2018-02-20T10:39:05.530Z,10444
2018-02-20T10:40:14.988Z,10576
2018-02-20T10:41:24.180Z,10756
2018-02-20T10:42:33.904Z,10848
2018-02-20T10:43:43.895Z,10828
2018-02-20T10:44:53.903Z,10788
2018-02-20T10:46:03.630Z,10812
2018-02-20T10:47:13.362Z,10844
2018-02-20T10:48:23.098Z,10892
2018-02-20T10:49:32.827Z,10988
2018-02-20T10:50:42.818Z,10980
2018-02-20T10:51:52.818Z,10972
2018-02-20T10:53:02.556Z,10956
2018-02-20T10:54:12.285Z,10960
2018-02-20T10:55:21.761Z,10944
2018-02-20T10:56:31.221Z,10912
2018-02-20T10:57:40.687Z,10872
2018-02-20T10:58:50.438Z,10812
2018-02-20T11:00:00.173Z,10756
2018-02-20T11:01:09.635Z,10744
2018-02-20T11:02:19.630Z,10672
2018-02-20T11:03:29.354Z,10576
2018-02-20T11:04:39.343Z,10704
2018-02-20T11:05:48.803Z,10960
2018-02-20T11:06:58.793Z,11044
2018-02-20T11:08:08.846Z,11080
2018-02-20T11:09:18.407Z,11188
2018-02-20T11:10:28.400Z,11328
2018-02-20T11:11:38.398Z,11416
2018-02-20T11:12:47.867Z,11472
2018-02-20T11:13:57.330Z,11492
2018-02-20T11:15:07.066Z,11488
2018-02-20T11:16:17.062Z,11508
2018-02-20T11:17:27.063Z,11604
2018-02-20T11:18:36.793Z,11612
2018-02-20T11:19:46.796Z,11624
2018-02-20T11:20:56.791Z,11704
2018-02-20T11:22:06.532Z,11836
2018-02-20T11:23:16.530Z,11912
2018-02-20T11:24:26.258Z,11984
2018-02-20T11:25:36.018Z,12076
2018-02-20T11:26:46.090Z,12104
2018-02-20T11:27:56.105Z,12196
2018-02-20T11:29:05.875Z,12188
2018-02-20T11:30:15.882Z,12096
2018-02-20T11:31:25.898Z,12056
2018-02-20T11:32:35.897Z,12032
2018-02-20T11:33:45.900Z,12136
2018-02-20T11:34:55.896Z,12216
2018-02-20T11:36:05.360Z,12400
2018-02-20T11:37:15.091Z,12484
2018-02-20T11:38:25.096Z,12488
2018-02-20T11:39:35.108Z,12468
2018-02-20T11:40:44.840Z,12464
2018-02-20T11:41:54.567Z,12424
2018-02-20T11:43:04.572Z,12368
2018-02-20T11:44:13.866Z,12292
2018-02-20T11:45:23.866Z,12284
2018-02-20T11:46:33.330Z,12252
2018-02-20T11:47:42.802Z,12156
2018-02-20T11:48:52.803Z,12152
2018-02-20T11:50:02.272Z,12236
2018-02-20T11:51:12.006Z,12472
2018-02-20T11:52:22.004Z,12620
2018-02-20T11:53:31.744Z,12612
2018-02-20T11:54:41.747Z,12452
2018-02-20T11:55:51.796Z,12312
2018-02-20T11:57:01.822Z,12196
2018-02-20T11:58:11.282Z,12148
2018-02-20T11:59:21.013Z,12152
2018-02-20T12:00:31.021Z,12160
2018-02-20T12:01:41.072Z,12200
2018-02-20T12:02:50.856Z,12156
2018-02-20T12:04:00.853Z,11928
2018-02-20T12:05:10.592Z,11740
2018-02-20T12:06:20.589Z,11784
2018-02-20T12:07:30.318Z,11856
2018-02-20T12:08:40.051Z,11868
2018-02-20T12:09:49.785Z,11832
2018-02-20T12:10:59.786Z,11780
2018-02-20T12:12:09.787Z,11936
2018-02-20T12:13:19.912Z,11928
2018-02-20T12:14:29.393Z,11904
2018-02-20T12:15:39.267Z,11900
2018-02-20T12:16:48.746Z,11848
2018-02-20T12:17:58.613Z,11676
2018-02-20T12:19:08.181Z,11516
2018-02-20T12:20:18.409Z,11472
2018-02-20T12:21:28.276Z,11496
2018-02-20T12:22:38.173Z,11488
2018-02-20T12:23:48.324Z,11492
2018-02-20T12:24:58.405Z,11692
2018-02-20T12:26:08.362Z,11924
2018-02-20T12:27:18.481Z,12016
2018-02-20T12:28:28.558Z,11816
2018-02-20T12:29:38.734Z,11512
2018-02-20T12:30:48.880Z,11320
2018-02-20T12:31:58.831Z,11140
2018-02-20T12:33:09.191Z,11112
2018-02-20T12:34:19.149Z,11228
2018-02-20T12:35:29.171Z,11324
2018-02-20T12:36:39.274Z,11504
2018-02-20T12:37:48.764Z,11736
2018-02-20T12:38:58.502Z,11736
2018-02-20T12:40:07.700Z,11768
2018-02-20T12:41:17.433Z,11816
2018-02-20T12:42:27.174Z,11772
2018-02-20T12:43:36.647Z,11672
2018-02-20T12:44:46.117Z,11556
2018-02-20T12:45:55.314Z,11364
2018-02-20T12:47:05.315Z,11076
2018-02-20T12:48:15.317Z,10760
2018-02-20T12:49:25.313Z,10564
2018-02-20T12:50:35.345Z,10432
2018-02-20T12:51:45.090Z,10432
2018-02-20T12:52:55.101Z,10468
2018-02-20T12:54:04.844Z,10416
2018-02-20T12:55:14.855Z,10376
2018-02-20T12:56:24.876Z,10276
2018-02-20T12:57:34.871Z,10080
2018-02-20T12:58:44.602Z,10032
2018-02-20T12:59:54.603Z,10004
2018-02-20T13:01:04.353Z,9936
2018-02-20T13:02:14.445Z,9868
2018-02-20T13:03:24.461Z,9780
2018-02-20T13:04:34.458Z,9792
2018-02-20T13:05:44.511Z,9752
2018-02-20T13:06:54.510Z,9784
2018-02-20T13:08:04.501Z,9736
2018-02-20T13:09:14.498Z,9680
2018-02-20T13:10:24.505Z,9688
2018-02-20T13:11:34.701Z,9788
2018-02-20T13:12:44.695Z,9828
2018-02-20T13:13:54.430Z,9672
2018-02-20T13:15:04.444Z,9544
2018-02-20T13:16:14.448Z,9424
2018-02-20T13:17:24.176Z,9336
2018-02-20T13:18:34.170Z,9296
2018-02-20T13:19:44.168Z,9308
2018-02-20T13:20:54.165Z,9332
2018-02-20T13:22:03.955Z,9240
2018-02-20T13:23:14.186Z,9152
2018-02-20T13:24:23.973Z,9056
2018-02-20T13:25:33.491Z,8992
2018-02-20T13:26:43.489Z,9040
2018-02-20T13:27:53.494Z,8968
2018-02-20T13:29:03.496Z,8936
2018-02-20T13:30:13.500Z,8904
2018-02-20T13:31:22.961Z,8836
2018-02-20T13:32:32.434Z,8764
2018-02-20T13:33:42.437Z,8672
2018-02-20T13:34:52.462Z,8544
2018-02-20T13:36:02.461Z,8496
2018-02-20T13:37:12.195Z,8472
2018-02-20T13:38:21.924Z,8364
2018-02-20T13:39:31.654Z,8220
2018-02-20T13:40:41.655Z,8156
2018-02-20T13:41:51.658Z,8192
2018-02-20T13:43:01.123Z,8204
2018-02-20T13:44:10.585Z,8192
2018-02-20T13:45:20.322Z,8128
2018-02-20T13:46:30.050Z,8024
2018-02-20T13:47:39.775Z,7892
2018-02-20T13:48:49.501Z,7624
2018-02-20T13:49:59.503Z,7492
2018-02-20T13:51:09.238Z,7412
2018-02-20T13:52:18.974Z,7436
2018-02-20T13:53:28.983Z,7340
2018-02-20T13:54:38.975Z,7256
2018-02-20T13:55:48.750Z,7164
2018-02-20T13:56:58.824Z,7176
2018-02-20T13:58:08.285Z,7000
2018-02-20T13:59:18.279Z,6816
2018-02-20T14:00:28.271Z,6764
2018-02-20T14:01:38.274Z,6580
2018-02-20T14:02:48.011Z,6404
2018-02-20T14:03:57.842Z,6380
2018-02-20T14:05:07.577Z,6496
2018-02-20T14:06:17.308Z,6700
2018-02-20T14:07:27.308Z,6788
2018-02-20T14:08:37.034Z,6732
2018-02-20T14:09:47.040Z,6552
2018-02-20T14:10:56.768Z,6456
2018-02-20T14:12:06.507Z,6324
2018-02-20T14:13:16.242Z,6176
2018-02-20T14:14:26.236Z,6132
2018-02-20T14:15:36.076Z,6088
2018-02-20T14:16:46.078Z,5976
2018-02-20T14:17:56.126Z,5880
2018-02-20T14:19:06.121Z,5820
2018-02-20T14:20:15.899Z,5704
2018-02-20T14:21:25.741Z,5724
2018-02-20T14:22:35.741Z,5800
2018-02-20T14:23:45.785Z,5896
2018-02-20T14:24:55.783Z,5828
2018-02-20T14:26:05.521Z,5756
2018-02-20T14:27:15.513Z,5644
2018-02-20T14:28:25.510Z,5612
2018-02-20T14:29:35.241Z,5516
2018-02-20T14:30:44.971Z,5464
2018-02-20T14:31:54.715Z,5416
2018-02-20T14:33:04.586Z,5380
2018-02-20T14:34:14.395Z,5388
2018-02-20T14:35:24.389Z,5448
2018-02-20T14:36:33.865Z,5384
2018-02-20T14:37:43.863Z,5308
2018-02-20T14:38:53.860Z,5244
2018-02-20T14:40:03.580Z,5252
2018-02-20T14:41:13.310Z,5232
2018-02-20T14:42:23.042Z,5340
2018-02-20T14:43:33.052Z,5416
2018-02-20T14:44:43.044Z,5392
2018-02-20T14:45:53.036Z,5284
2018-02-20T14:47:03.033Z,5024
2018-02-20T14:48:12.760Z,4728
2018-02-20T14:49:22.527Z,4568
2018-02-20T14:50:32.523Z,4572
2018-02-20T14:51:41.991Z,4416
2018-02-20T14:52:51.455Z,4180
2018-02-20T14:54:01.186Z,3932
2018-02-20T14:55:11.179Z,3780
2018-02-20T14:56:20.906Z,3592
2018-02-20T14:57:30.907Z,3464
2018-02-20T14:58:40.898Z,3372
2018-02-20T14:59:50.897Z,3296
2018-02-20T15:01:00.937Z,3196
2018-02-20T15:02:10.772Z,3032
2018-02-20T15:03:20.817Z,2836
2018-02-20T15:04:30.812Z,2704
2018-02-20T15:05:40.807Z,2648
2018-02-20T15:06:50.548Z,2608
2018-02-20T15:08:00.541Z,2516
2018-02-20T15:09:10.269Z,2436
2018-02-20T15:10:20.001Z,2404
2018-02-20T15:11:29.995Z,2360
2018-02-20T15:12:39.452Z,2276
2018-02-20T15:13:49.442Z,2184
2018-02-20T15:14:59.450Z,2100
2018-02-20T15:16:09.181Z,2024
2018-02-20T15:17:19.176Z,1956
2018-02-20T15:18:28.905Z,1880
2018-02-20T15:19:38.633Z,1836
2018-02-20T15:20:48.352Z,1792
2018-02-20T15:21:58.346Z,1772
2018-02-20T15:23:08.074Z,1756
2018-02-20T15:24:17.803Z,1740
2018-02-20T15:25:27.794Z,1724
2018-02-20T15:26:37.796Z,1680
2018-02-20T15:27:47.522Z,1692
2018-02-20T15:28:57.258Z,1768
2018-02-20T15:30:07.254Z,1744
2018-02-20T15:31:17.025Z,1660
2018-02-20T15:32:27.018Z,1612
2018-02-20T15:33:37.006Z,1540
2018-02-20T15:34:46.999Z,1488
2018-02-20T15:35:57.001Z,1456
2018-02-20T15:37:07.005Z,1416
2018-02-20T15:38:16.736Z,1376
2018-02-20T15:39:26.732Z,1280
2018-02-20T15:40:36.193Z,1200
2018-02-20T15:41:45.920Z,1116
2018-02-20T15:42:55.644Z,1020
2018-02-20T15:44:05.371Z,956
2018-02-20T15:45:15.369Z,912
2018-02-20T15:46:25.371Z,884
2018-02-20T15:47:35.442Z,872
2018-02-20T15:48:45.222Z,856
2018-02-20T15:49:55.222Z,836
2018-02-20T15:51:05.223Z,796
2018-02-20T15:52:14.753Z,720
2018-02-20T15:53:24.753Z,640
2018-02-20T15:54:34.492Z,592
2018-02-20T15:55:44.489Z,568
2018-02-20T15:56:54.484Z,544
2018-02-20T15:58:04.476Z,524
2018-02-20T15:59:14.512Z,500
2018-02-20T16:00:24.515Z,484
2018-02-20T16:01:33.975Z,468
2018-02-20T16:02:43.703Z,448
2018-02-20T16:03:53.701Z,432
2018-02-20T16:05:03.430Z,412
2018-02-20T16:06:13.435Z,396
2018-02-20T16:07:23.441Z,380
2018-02-20T16:08:32.636Z,364